sensor_id;sensor_type;location;lat;lon;timestamp;P1;durP1;ratioP1;P2;durP2;ratioP2
45905;SDS011;31619;49.008;12.106;2022-07-03T00:00:11;2.85;;;2.70;;
45905;SDS011;31619;49.008;12.106;2022-07-03T00:02:37;2.75;;;2.55;;
45905;SDS011;31619;49.008;12.106;2022-07-03T00:05:02;3.13;;;2.92;;
45905;SDS011;31619;49.008;12.106;2022-07-03T00:07:28;2.97;;;2.75;;
45905;SDS011;31619;49.008;12.106;2022-07-03T00:09:54;2.90;;;2.70;;
45905;SDS011;31619;49.008;12.106;2022-07-03T00:12:20;2.50;;;2.40;;
45905;SDS011;31619;49.008;12.106;2022-07-03T00:14:45;2.80;;;2.70;;
45905;SDS011;31619;49.008;12.106;2022-07-03T00:17:11;3.10;;;2.90;;
45905;SDS011;31619;49.008;12.106;2022-07-03T00:19:36;2.85;;;2.65;;
45905;SDS011;31619;49.008;12.106;2022-07-03T00:22:05;3.15;;;2.95;;
45905;SDS011;31619;49.008;12.106;2022-07-03T00:24:50;2.97;;;2.85;;
45905;SDS011;31619;49.008;12.106;2022-07-03T00:27:17;3.20;;;3.00;;
45905;SDS011;31619;49.008;12.106;2022-07-03T00:29:45;3.30;;;3.10;;
45905;SDS011;31619;49.008;12.106;2022-07-03T00:32:13;2.92;;;2.72;;
45905;SDS011;31619;49.008;12.106;2022-07-03T00:34:43;2.90;;;2.70;;
45905;SDS011;31619;49.008;12.106;2022-07-03T00:37:11;2.80;;;2.60;;
45905;SDS011;31619;49.008;12.106;2022-07-03T00:39:39;2.83;;;2.72;;
45905;SDS011;31619;49.008;12.106;2022-07-03T00:42:07;3.45;;;3.25;;
45905;SDS011;31619;49.008;12.106;2022-07-03T00:44:53;2.83;;;2.70;;
45905;SDS011;31619;49.008;12.106;2022-07-03T00:47:22;3.75;;;3.28;;
45905;SDS011;31619;49.008;12.106;2022-07-03T00:49:49;3.22;;;3.00;;
45905;SDS011;31619;49.008;12.106;2022-07-03T00:52:18;3.40;;;3.10;;
45905;SDS011;31619;49.008;12.106;2022-07-03T00:54:50;3.15;;;2.90;;
45905;SDS011;31619;49.008;12.106;2022-07-03T00:57:21;3.13;;;2.92;;
45905;SDS011;31619;49.008;12.106;2022-07-03T00:59:48;3.38;;;2.97;;
45905;SDS011;31619;49.008;12.106;2022-07-03T01:02:20;3.17;;;2.88;;
45905;SDS011;31619;49.008;12.106;2022-07-03T01:05:15;3.25;;;2.78;;
45905;SDS011;31619;49.008;12.106;2022-07-03T01:17:24;3.10;;;2.90;;
45905;SDS011;31619;49.008;12.106;2022-07-03T01:20:05;4.47;;;3.35;;
45905;SDS011;31619;49.008;12.106;2022-07-03T01:22:45;3.30;;;3.10;;
45905;SDS011;31619;49.008;12.106;2022-07-03T01:30:40;3.50;;;3.30;;
45905;SDS011;31619;49.008;12.106;2022-07-03T01:33:16;3.45;;;3.25;;
45905;SDS011;31619;49.008;12.106;2022-07-03T01:36:06;3.10;;;2.90;;
45905;SDS011;31619;49.008;12.106;2022-07-03T01:38:32;3.60;;;3.40;;
45905;SDS011;31619;49.008;12.106;2022-07-03T01:41:03;3.63;;;3.30;;
45905;SDS011;31619;49.008;12.106;2022-07-03T01:43:31;3.40;;;3.20;;
45905;SDS011;31619;49.008;12.106;2022-07-03T01:45:58;4.25;;;3.85;;
45905;SDS011;31619;49.008;12.106;2022-07-03T01:48:26;3.47;;;3.28;;
45905;SDS011;31619;49.008;12.106;2022-07-03T01:50:53;3.10;;;2.90;;
45905;SDS011;31619;49.008;12.106;2022-07-03T01:53:20;4.38;;;4.00;;
45905;SDS011;31619;49.008;12.106;2022-07-03T01:55:50;3.45;;;3.20;;
45905;SDS011;31619;49.008;12.106;2022-07-03T01:58:16;3.45;;;3.25;;
45905;SDS011;31619;49.008;12.106;2022-07-03T02:00:46;7.43;;;3.47;;
45905;SDS011;31619;49.008;12.106;2022-07-03T02:03:24;3.97;;;3.70;;
45905;SDS011;31619;49.008;12.106;2022-07-03T02:05:53;4.05;;;3.75;;
45905;SDS011;31619;49.008;12.106;2022-07-03T02:13:48;3.85;;;3.55;;
45905;SDS011;31619;49.008;12.106;2022-07-03T02:16:17;3.13;;;2.90;;
45905;SDS011;31619;49.008;12.106;2022-07-03T02:18:44;3.45;;;3.13;;
45905;SDS011;31619;49.008;12.106;2022-07-03T02:21:49;3.50;;;3.20;;
45905;SDS011;31619;49.008;12.106;2022-07-03T02:24:19;4.20;;;3.47;;
45905;SDS011;31619;49.008;12.106;2022-07-03T02:26:53;3.30;;;3.10;;
45905;SDS011;31619;49.008;12.106;2022-07-03T02:29:51;4.00;;;3.63;;
45905;SDS011;31619;49.008;12.106;2022-07-03T02:32:30;3.60;;;3.30;;
45905;SDS011;31619;49.008;12.106;2022-07-03T02:35:09;3.40;;;3.15;;
45905;SDS011;31619;49.008;12.106;2022-07-03T02:37:45;3.10;;;2.92;;
45905;SDS011;31619;49.008;12.106;2022-07-03T02:43:03;3.75;;;3.55;;
45905;SDS011;31619;49.008;12.106;2022-07-03T02:46:24;3.78;;;3.58;;
45905;SDS011;31619;49.008;12.106;2022-07-03T02:48:56;3.83;;;3.53;;
45905;SDS011;31619;49.008;12.106;2022-07-03T02:51:31;3.50;;;3.30;;
45905;SDS011;31619;49.008;12.106;2022-07-03T02:54:04;3.97;;;3.78;;
45905;SDS011;31619;49.008;12.106;2022-07-03T02:59:14;3.40;;;3.20;;
45905;SDS011;31619;49.008;12.106;2022-07-03T03:04:38;3.40;;;3.20;;
45905;SDS011;31619;49.008;12.106;2022-07-03T03:07:18;3.90;;;3.60;;
45905;SDS011;31619;49.008;12.106;2022-07-03T03:09:54;3.58;;;3.28;;
45905;SDS011;31619;49.008;12.106;2022-07-03T03:12:23;3.33;;;3.13;;
45905;SDS011;31619;49.008;12.106;2022-07-03T03:15:02;3.85;;;3.60;;
45905;SDS011;31619;49.008;12.106;2022-07-03T03:17:34;3.35;;;3.15;;
45905;SDS011;31619;49.008;12.106;2022-07-03T03:20:06;3.67;;;3.40;;
45905;SDS011;31619;49.008;12.106;2022-07-03T03:22:37;3.58;;;3.38;;
45905;SDS011;31619;49.008;12.106;2022-07-03T03:25:05;3.85;;;3.55;;
45905;SDS011;31619;49.008;12.106;2022-07-03T03:27:31;3.45;;;3.25;;
45905;SDS011;31619;49.008;12.106;2022-07-03T03:29:56;3.58;;;3.38;;
45905;SDS011;31619;49.008;12.106;2022-07-03T03:32:23;3.75;;;3.45;;
45905;SDS011;31619;49.008;12.106;2022-07-03T03:34:51;4.05;;;3.65;;
45905;SDS011;31619;49.008;12.106;2022-07-03T03:37:16;3.80;;;3.50;;
45905;SDS011;31619;49.008;12.106;2022-07-03T03:39:42;3.72;;;3.53;;
45905;SDS011;31619;49.008;12.106;2022-07-03T03:42:08;3.53;;;3.33;;
45905;SDS011;31619;49.008;12.106;2022-07-03T03:44:34;4.32;;;3.88;;
45905;SDS011;31619;49.008;12.106;2022-07-03T03:47:00;3.40;;;3.20;;
45905;SDS011;31619;49.008;12.106;2022-07-03T03:49:26;3.58;;;3.35;;
45905;SDS011;31619;49.008;12.106;2022-07-03T03:51:52;3.70;;;3.50;;
45905;SDS011;31619;49.008;12.106;2022-07-03T03:54:18;3.83;;;3.60;;
45905;SDS011;31619;49.008;12.106;2022-07-03T03:56:43;3.70;;;3.38;;
45905;SDS011;31619;49.008;12.106;2022-07-03T03:59:09;3.42;;;3.22;;
45905;SDS011;31619;49.008;12.106;2022-07-03T04:01:35;3.42;;;3.13;;
45905;SDS011;31619;49.008;12.106;2022-07-03T04:04:00;3.80;;;3.50;;
45905;SDS011;31619;49.008;12.106;2022-07-03T04:06:26;3.38;;;3.08;;
45905;SDS011;31619;49.008;12.106;2022-07-03T04:08:52;3.05;;;2.92;;
45905;SDS011;31619;49.008;12.106;2022-07-03T04:11:18;5.75;;;3.20;;
45905;SDS011;31619;49.008;12.106;2022-07-03T04:13:43;2.90;;;2.80;;
45905;SDS011;31619;49.008;12.106;2022-07-03T04:16:10;3.45;;;3.25;;
45905;SDS011;31619;49.008;12.106;2022-07-03T04:18:37;3.55;;;3.35;;
45905;SDS011;31619;49.008;12.106;2022-07-03T04:21:03;3.95;;;3.75;;
45905;SDS011;31619;49.008;12.106;2022-07-03T04:23:29;3.58;;;3.38;;
45905;SDS011;31619;49.008;12.106;2022-07-03T04:25:55;3.80;;;3.40;;
45905;SDS011;31619;49.008;12.106;2022-07-03T04:28:27;4.60;;;4.30;;
45905;SDS011;31619;49.008;12.106;2022-07-03T04:30:52;4.10;;;3.80;;
45905;SDS011;31619;49.008;12.106;2022-07-03T04:33:18;3.75;;;3.55;;
45905;SDS011;31619;49.008;12.106;2022-07-03T04:35:44;4.20;;;3.80;;
45905;SDS011;31619;49.008;12.106;2022-07-03T04:38:09;3.65;;;3.45;;
45905;SDS011;31619;49.008;12.106;2022-07-03T04:40:35;4.55;;;4.25;;
45905;SDS011;31619;49.008;12.106;2022-07-03T04:43:01;4.60;;;4.30;;
45905;SDS011;31619;49.008;12.106;2022-07-03T04:45:26;4.00;;;3.70;;
45905;SDS011;31619;49.008;12.106;2022-07-03T04:47:52;4.55;;;4.15;;
45905;SDS011;31619;49.008;12.106;2022-07-03T04:50:18;4.55;;;4.15;;
45905;SDS011;31619;49.008;12.106;2022-07-03T04:52:43;4.32;;;4.07;;
45905;SDS011;31619;49.008;12.106;2022-07-03T04:55:09;5.47;;;4.20;;
45905;SDS011;31619;49.008;12.106;2022-07-03T04:57:35;4.72;;;4.32;;
45905;SDS011;31619;49.008;12.106;2022-07-03T05:00:01;3.65;;;3.45;;
45905;SDS011;31619;49.008;12.106;2022-07-03T05:02:27;4.15;;;3.85;;
45905;SDS011;31619;49.008;12.106;2022-07-03T05:04:53;3.78;;;3.58;;
45905;SDS011;31619;49.008;12.106;2022-07-03T05:07:18;4.72;;;4.43;;
45905;SDS011;31619;49.008;12.106;2022-07-03T05:09:44;3.92;;;3.70;;
45905;SDS011;31619;49.008;12.106;2022-07-03T05:12:09;4.32;;;4.00;;
45905;SDS011;31619;49.008;12.106;2022-07-03T05:14:35;3.97;;;3.67;;
45905;SDS011;31619;49.008;12.106;2022-07-03T05:17:01;3.58;;;3.38;;
45905;SDS011;31619;49.008;12.106;2022-07-03T05:19:26;4.00;;;3.80;;
45905;SDS011;31619;49.008;12.106;2022-07-03T05:21:52;4.00;;;3.67;;
45905;SDS011;31619;49.008;12.106;2022-07-03T05:24:17;4.05;;;3.65;;
45905;SDS011;31619;49.008;12.106;2022-07-03T05:26:43;3.83;;;3.53;;
45905;SDS011;31619;49.008;12.106;2022-07-03T05:29:08;3.65;;;3.40;;
45905;SDS011;31619;49.008;12.106;2022-07-03T05:31:34;3.45;;;2.90;;
45905;SDS011;31619;49.008;12.106;2022-07-03T05:34:00;3.60;;;3.40;;
45905;SDS011;31619;49.008;12.106;2022-07-03T05:36:25;3.70;;;3.45;;
45905;SDS011;31619;49.008;12.106;2022-07-03T05:38:51;3.50;;;3.30;;
45905;SDS011;31619;49.008;12.106;2022-07-03T05:41:35;3.42;;;3.13;;
45905;SDS011;31619;49.008;12.106;2022-07-03T05:44:00;3.28;;;3.08;;
45905;SDS011;31619;49.008;12.106;2022-07-03T05:46:26;3.30;;;3.10;;
45905;SDS011;31619;49.008;12.106;2022-07-03T05:48:51;3.60;;;3.30;;
45905;SDS011;31619;49.008;12.106;2022-07-03T05:51:17;2.90;;;2.80;;
45905;SDS011;31619;49.008;12.106;2022-07-03T05:53:43;3.35;;;3.05;;
45905;SDS011;31619;49.008;12.106;2022-07-03T05:56:08;3.30;;;3.10;;
45905;SDS011;31619;49.008;12.106;2022-07-03T05:58:34;3.33;;;3.13;;
45905;SDS011;31619;49.008;12.106;2022-07-03T06:00:59;3.63;;;3.33;;
45905;SDS011;31619;49.008;12.106;2022-07-03T06:03:25;3.30;;;3.10;;
45905;SDS011;31619;49.008;12.106;2022-07-03T06:05:51;3.47;;;3.08;;
45905;SDS011;31619;49.008;12.106;2022-07-03T06:08:16;3.83;;;3.42;;
45905;SDS011;31619;49.008;12.106;2022-07-03T06:10:42;3.60;;;3.20;;
45905;SDS011;31619;49.008;12.106;2022-07-03T06:13:07;4.00;;;3.70;;
45905;SDS011;31619;49.008;12.106;2022-07-03T06:15:33;3.42;;;3.22;;
45905;SDS011;31619;49.008;12.106;2022-07-03T06:17:59;3.60;;;3.40;;
45905;SDS011;31619;49.008;12.106;2022-07-03T06:20:24;3.10;;;2.90;;
45905;SDS011;31619;49.008;12.106;2022-07-03T06:22:50;4.03;;;3.80;;
45905;SDS011;31619;49.008;12.106;2022-07-03T06:25:15;2.80;;;2.70;;
45905;SDS011;31619;49.008;12.106;2022-07-03T06:27:42;4.13;;;2.67;;
45905;SDS011;31619;49.008;12.106;2022-07-03T06:30:08;2.80;;;2.60;;
45905;SDS011;31619;49.008;12.106;2022-07-03T06:32:34;2.67;;;2.58;;
45905;SDS011;31619;49.008;12.106;2022-07-03T06:34:59;5.20;;;2.75;;
45905;SDS011;31619;49.008;12.106;2022-07-03T06:37:25;2.63;;;2.53;;
45905;SDS011;31619;49.008;12.106;2022-07-03T06:39:51;3.03;;;2.80;;
45905;SDS011;31619;49.008;12.106;2022-07-03T06:42:16;3.38;;;2.83;;
45905;SDS011;31619;49.008;12.106;2022-07-03T06:44:42;2.58;;;2.45;;
45905;SDS011;31619;49.008;12.106;2022-07-03T06:47:09;3.63;;;2.60;;
45905;SDS011;31619;49.008;12.106;2022-07-03T06:49:35;2.92;;;2.63;;
45905;SDS011;31619;49.008;12.106;2022-07-03T06:52:01;3.33;;;3.03;;
45905;SDS011;31619;49.008;12.106;2022-07-03T06:54:27;2.60;;;2.50;;
45905;SDS011;31619;49.008;12.106;2022-07-03T06:56:52;3.10;;;2.83;;
45905;SDS011;31619;49.008;12.106;2022-07-03T06:59:18;3.13;;;2.53;;
45905;SDS011;31619;49.008;12.106;2022-07-03T07:01:44;3.58;;;2.70;;
45905;SDS011;31619;49.008;12.106;2022-07-03T07:04:09;2.75;;;2.58;;
45905;SDS011;31619;49.008;12.106;2022-07-03T07:06:35;2.83;;;2.72;;
45905;SDS011;31619;49.008;12.106;2022-07-03T07:09:01;2.50;;;2.40;;
45905;SDS011;31619;49.008;12.106;2022-07-03T07:11:28;2.85;;;2.75;;
45905;SDS011;31619;49.008;12.106;2022-07-03T07:13:54;3.20;;;3.00;;
45905;SDS011;31619;49.008;12.106;2022-07-03T07:16:19;2.65;;;2.45;;
45905;SDS011;31619;49.008;12.106;2022-07-03T07:18:45;2.90;;;2.80;;
45905;SDS011;31619;49.008;12.106;2022-07-03T07:21:11;2.60;;;2.42;;
45905;SDS011;31619;49.008;12.106;2022-07-03T07:23:37;2.85;;;2.70;;
45905;SDS011;31619;49.008;12.106;2022-07-03T07:26:03;2.80;;;2.70;;
45905;SDS011;31619;49.008;12.106;2022-07-03T07:28:29;2.90;;;2.70;;
45905;SDS011;31619;49.008;12.106;2022-07-03T07:30:56;2.85;;;2.75;;
45905;SDS011;31619;49.008;12.106;2022-07-03T07:33:22;2.88;;;2.67;;
45905;SDS011;31619;49.008;12.106;2022-07-03T07:35:48;2.63;;;2.53;;
45905;SDS011;31619;49.008;12.106;2022-07-03T07:38:14;2.83;;;2.63;;
45905;SDS011;31619;49.008;12.106;2022-07-03T07:40:40;2.85;;;2.70;;
45905;SDS011;31619;49.008;12.106;2022-07-03T07:43:06;2.85;;;2.65;;
45905;SDS011;31619;49.008;12.106;2022-07-03T07:45:32;3.17;;;2.97;;
45905;SDS011;31619;49.008;12.106;2022-07-03T07:47:58;3.03;;;2.83;;
45905;SDS011;31619;49.008;12.106;2022-07-03T07:50:23;2.70;;;2.60;;
45905;SDS011;31619;49.008;12.106;2022-07-03T07:52:49;2.83;;;2.72;;
45905;SDS011;31619;49.008;12.106;2022-07-03T07:55:15;5.53;;;2.88;;
45905;SDS011;31619;49.008;12.106;2022-07-03T07:57:41;3.42;;;3.00;;
45905;SDS011;31619;49.008;12.106;2022-07-03T08:00:07;3.28;;;2.92;;
45905;SDS011;31619;49.008;12.106;2022-07-03T08:02:38;2.63;;;2.50;;
45905;SDS011;31619;49.008;12.106;2022-07-03T08:05:22;2.97;;;2.75;;
45905;SDS011;31619;49.008;12.106;2022-07-03T08:08:00;5.03;;;2.92;;
45905;SDS011;31619;49.008;12.106;2022-07-03T08:10:37;2.83;;;2.63;;
45905;SDS011;31619;49.008;12.106;2022-07-03T08:13:05;2.60;;;2.50;;
45905;SDS011;31619;49.008;12.106;2022-07-03T08:15:31;2.95;;;2.75;;
45905;SDS011;31619;49.008;12.106;2022-07-03T08:17:56;3.83;;;2.80;;
45905;SDS011;31619;49.008;12.106;2022-07-03T08:20:22;2.33;;;2.22;;
45905;SDS011;31619;49.008;12.106;2022-07-03T08:22:48;3.90;;;2.22;;
45905;SDS011;31619;49.008;12.106;2022-07-03T08:25:13;3.13;;;2.42;;
45905;SDS011;31619;49.008;12.106;2022-07-03T08:27:39;2.53;;;2.33;;
45905;SDS011;31619;49.008;12.106;2022-07-03T08:30:05;2.60;;;2.50;;
45905;SDS011;31619;49.008;12.106;2022-07-03T08:32:31;2.80;;;2.65;;
45905;SDS011;31619;49.008;12.106;2022-07-03T08:34:57;2.53;;;2.30;;
45905;SDS011;31619;49.008;12.106;2022-07-03T08:37:22;3.15;;;2.47;;
45905;SDS011;31619;49.008;12.106;2022-07-03T08:39:48;2.25;;;2.15;;
45905;SDS011;31619;49.008;12.106;2022-07-03T08:42:13;2.55;;;2.20;;
45905;SDS011;31619;49.008;12.106;2022-07-03T08:44:41;3.28;;;2.45;;
45905;SDS011;31619;49.008;12.106;2022-07-03T08:47:08;2.50;;;2.40;;
45905;SDS011;31619;49.008;12.106;2022-07-03T08:49:37;2.60;;;2.50;;
45905;SDS011;31619;49.008;12.106;2022-07-03T08:52:03;2.40;;;2.13;;
45905;SDS011;31619;49.008;12.106;2022-07-03T08:54:32;5.63;;;2.40;;
45905;SDS011;31619;49.008;12.106;2022-07-03T08:57:01;2.80;;;2.60;;
45905;SDS011;31619;49.008;12.106;2022-07-03T08:59:32;2.10;;;2.00;;
45905;SDS011;31619;49.008;12.106;2022-07-03T09:02:02;2.53;;;2.33;;
45905;SDS011;31619;49.008;12.106;2022-07-03T09:04:29;2.22;;;2.13;;
45905;SDS011;31619;49.008;12.106;2022-07-03T09:06:56;2.35;;;2.25;;
45905;SDS011;31619;49.008;12.106;2022-07-03T09:09:23;2.53;;;2.40;;
45905;SDS011;31619;49.008;12.106;2022-07-03T09:11:49;2.28;;;2.13;;
45905;SDS011;31619;49.008;12.106;2022-07-03T09:14:16;2.28;;;2.17;;
45905;SDS011;31619;49.008;12.106;2022-07-03T09:16:41;2.28;;;2.17;;
45905;SDS011;31619;49.008;12.106;2022-07-03T09:19:07;2.47;;;2.30;;
45905;SDS011;31619;49.008;12.106;2022-07-03T09:21:37;2.38;;;2.28;;
45905;SDS011;31619;49.008;12.106;2022-07-03T09:24:04;2.40;;;2.13;;
45905;SDS011;31619;49.008;12.106;2022-07-03T09:26:31;2.03;;;1.90;;
45905;SDS011;31619;49.008;12.106;2022-07-03T09:28:57;1.85;;;1.65;;
45905;SDS011;31619;49.008;12.106;2022-07-03T09:31:24;2.17;;;2.00;;
45905;SDS011;31619;49.008;12.106;2022-07-03T09:34:01;2.20;;;2.10;;
45905;SDS011;31619;49.008;12.106;2022-07-03T09:44:41;2.47;;;2.38;;
45905;SDS011;31619;49.008;12.106;2022-07-03T09:52:38;2.05;;;1.73;;
45905;SDS011;31619;49.008;12.106;2022-07-03T09:57:40;1.58;;;1.50;;
45905;SDS011;31619;49.008;12.106;2022-07-03T10:07:54;1.30;;;1.30;;
45905;SDS011;31619;49.008;12.106;2022-07-03T10:10:24;2.53;;;1.27;;
45905;SDS011;31619;49.008;12.106;2022-07-03T10:12:52;1.33;;;1.33;;
45905;SDS011;31619;49.008;12.106;2022-07-03T10:15:18;1.52;;;1.30;;
45905;SDS011;31619;49.008;12.106;2022-07-03T10:17:48;1.25;;;1.25;;
45905;SDS011;31619;49.008;12.106;2022-07-03T10:20:21;1.30;;;1.20;;
45905;SDS011;31619;49.008;12.106;2022-07-03T10:22:50;1.45;;;1.35;;
45905;SDS011;31619;49.008;12.106;2022-07-03T10:25:17;2.15;;;1.00;;
45905;SDS011;31619;49.008;12.106;2022-07-03T10:27:43;1.50;;;1.40;;
45905;SDS011;31619;49.008;12.106;2022-07-03T10:30:11;1.45;;;1.35;;
45905;SDS011;31619;49.008;12.106;2022-07-03T10:32:39;1.73;;;1.63;;
45905;SDS011;31619;49.008;12.106;2022-07-03T10:35:07;1.50;;;1.40;;
45905;SDS011;31619;49.008;12.106;2022-07-03T10:37:38;1.77;;;1.38;;
45905;SDS011;31619;49.008;12.106;2022-07-03T10:40:13;1.42;;;1.15;;
45905;SDS011;31619;49.008;12.106;2022-07-03T10:43:27;1.95;;;1.40;;
45905;SDS011;31619;49.008;12.106;2022-07-03T10:46:14;0.93;;;0.93;;
45905;SDS011;31619;49.008;12.106;2022-07-03T10:48:50;1.40;;;1.40;;
45905;SDS011;31619;49.008;12.106;2022-07-03T10:51:23;1.65;;;1.55;;
45905;SDS011;31619;49.008;12.106;2022-07-03T10:53:50;1.38;;;1.13;;
45905;SDS011;31619;49.008;12.106;2022-07-03T10:57:04;1.35;;;1.25;;
45905;SDS011;31619;49.008;12.106;2022-07-03T10:59:21;2.92;;;1.25;;
45905;SDS011;31619;49.008;12.106;2022-07-03T11:01:46;1.45;;;0.85;;
45905;SDS011;31619;49.008;12.106;2022-07-03T11:04:12;0.90;;;0.50;;
45905;SDS011;31619;49.008;12.106;2022-07-03T11:09:12;0.57;;;0.57;;
45905;SDS011;31619;49.008;12.106;2022-07-03T11:14:26;0.57;;;0.57;;
45905;SDS011;31619;49.008;12.106;2022-07-03T11:19:47;0.60;;;0.60;;
45905;SDS011;31619;49.008;12.106;2022-07-03T11:22:44;1.10;;;1.10;;
45905;SDS011;31619;49.008;12.106;2022-07-03T11:25:43;0.63;;;0.63;;
45905;SDS011;31619;49.008;12.106;2022-07-03T11:36:09;0.52;;;0.52;;
45905;SDS011;31619;49.008;12.106;2022-07-03T11:38:36;0.77;;;0.77;;
45905;SDS011;31619;49.008;12.106;2022-07-03T11:41:03;0.60;;;0.60;;
45905;SDS011;31619;49.008;12.106;2022-07-03T11:43:33;0.60;;;0.60;;
45905;SDS011;31619;49.008;12.106;2022-07-03T11:46:01;1.77;;;0.80;;
45905;SDS011;31619;49.008;12.106;2022-07-03T11:48:29;0.95;;;0.80;;
45905;SDS011;31619;49.008;12.106;2022-07-03T11:51:02;0.90;;;0.90;;
45905;SDS011;31619;49.008;12.106;2022-07-03T11:56:09;0.65;;;0.65;;
45905;SDS011;31619;49.008;12.106;2022-07-03T11:58:43;0.93;;;0.93;;
45905;SDS011;31619;49.008;12.106;2022-07-03T12:03:48;0.80;;;0.80;;
45905;SDS011;31619;49.008;12.106;2022-07-03T12:06:14;0.73;;;0.73;;
45905;SDS011;31619;49.008;12.106;2022-07-03T12:08:40;0.88;;;0.88;;
45905;SDS011;31619;49.008;12.106;2022-07-03T12:11:10;1.15;;;0.98;;
45905;SDS011;31619;49.008;12.106;2022-07-03T12:13:38;0.60;;;0.60;;
45905;SDS011;31619;49.008;12.106;2022-07-03T12:16:08;0.35;;;0.35;;
45905;SDS011;31619;49.008;12.106;2022-07-03T12:18:43;0.90;;;0.70;;
45905;SDS011;31619;49.008;12.106;2022-07-03T12:21:17;0.70;;;0.70;;
45905;SDS011;31619;49.008;12.106;2022-07-03T12:23:44;0.80;;;0.80;;
45905;SDS011;31619;49.008;12.106;2022-07-03T12:26:12;0.50;;;0.50;;
45905;SDS011;31619;49.008;12.106;2022-07-03T12:28:38;1.58;;;0.80;;
45905;SDS011;31619;49.008;12.106;2022-07-03T12:31:05;0.63;;;0.60;;
45905;SDS011;31619;49.008;12.106;2022-07-03T12:33:31;1.55;;;0.70;;
45905;SDS011;31619;49.008;12.106;2022-07-03T12:36:06;0.60;;;0.60;;
45905;SDS011;31619;49.008;12.106;2022-07-03T12:38:36;0.60;;;0.60;;
45905;SDS011;31619;49.008;12.106;2022-07-03T12:41:08;0.45;;;0.45;;
45905;SDS011;31619;49.008;12.106;2022-07-03T12:48:52;0.70;;;0.70;;
45905;SDS011;31619;49.008;12.106;2022-07-03T12:54:04;0.70;;;0.70;;
45905;SDS011;31619;49.008;12.106;2022-07-03T12:56:30;0.80;;;0.80;;
45905;SDS011;31619;49.008;12.106;2022-07-03T12:58:56;0.90;;;0.90;;
45905;SDS011;31619;49.008;12.106;2022-07-03T13:01:40;1.58;;;0.60;;
45905;SDS011;31619;49.008;12.106;2022-07-03T13:04:06;0.60;;;0.60;;
45905;SDS011;31619;49.008;12.106;2022-07-03T13:06:39;1.30;;;0.70;;
45905;SDS011;31619;49.008;12.106;2022-07-03T13:09:06;1.60;;;0.85;;
45905;SDS011;31619;49.008;12.106;2022-07-03T13:11:39;0.50;;;0.50;;
45905;SDS011;31619;49.008;12.106;2022-07-03T13:14:13;1.45;;;0.80;;
45905;SDS011;31619;49.008;12.106;2022-07-03T13:16:41;0.52;;;0.43;;
45905;SDS011;31619;49.008;12.106;2022-07-03T13:19:08;0.43;;;0.43;;
45905;SDS011;31619;49.008;12.106;2022-07-03T13:21:35;0.50;;;0.43;;
45905;SDS011;31619;49.008;12.106;2022-07-03T13:24:01;1.13;;;0.70;;
45905;SDS011;31619;49.008;12.106;2022-07-03T13:26:27;0.80;;;0.68;;
45905;SDS011;31619;49.008;12.106;2022-07-03T13:28:53;0.47;;;0.47;;
45905;SDS011;31619;49.008;12.106;2022-07-03T13:31:19;0.50;;;0.50;;
45905;SDS011;31619;49.008;12.106;2022-07-03T13:33:44;0.28;;;0.28;;
45905;SDS011;31619;49.008;12.106;2022-07-03T13:36:10;0.60;;;0.60;;
45905;SDS011;31619;49.008;12.106;2022-07-03T13:38:35;1.15;;;0.70;;
45905;SDS011;31619;49.008;12.106;2022-07-03T13:41:01;0.52;;;0.52;;
45905;SDS011;31619;49.008;12.106;2022-07-03T13:43:26;0.47;;;0.47;;
45905;SDS011;31619;49.008;12.106;2022-07-03T13:45:52;0.30;;;0.30;;
45905;SDS011;31619;49.008;12.106;2022-07-03T13:48:18;1.65;;;0.55;;
45905;SDS011;31619;49.008;12.106;2022-07-03T13:50:44;0.85;;;0.45;;
45905;SDS011;31619;49.008;12.106;2022-07-03T13:53:11;0.50;;;0.50;;
45905;SDS011;31619;49.008;12.106;2022-07-03T13:55:37;2.83;;;0.77;;
45905;SDS011;31619;49.008;12.106;2022-07-03T13:58:05;0.52;;;0.52;;
45905;SDS011;31619;49.008;12.106;2022-07-03T14:00:32;0.30;;;0.30;;
45905;SDS011;31619;49.008;12.106;2022-07-03T14:02:59;0.68;;;0.68;;
45905;SDS011;31619;49.008;12.106;2022-07-03T14:05:25;0.57;;;0.57;;
45905;SDS011;31619;49.008;12.106;2022-07-03T14:07:50;0.40;;;0.40;;
45905;SDS011;31619;49.008;12.106;2022-07-03T14:10:16;1.63;;;0.70;;
45905;SDS011;31619;49.008;12.106;2022-07-03T14:12:42;0.50;;;0.50;;
45905;SDS011;31619;49.008;12.106;2022-07-03T14:15:07;0.40;;;0.40;;
45905;SDS011;31619;49.008;12.106;2022-07-03T14:17:33;0.47;;;0.40;;
45905;SDS011;31619;49.008;12.106;2022-07-03T14:19:59;0.38;;;0.38;;
45905;SDS011;31619;49.008;12.106;2022-07-03T14:22:25;0.50;;;0.50;;
45905;SDS011;31619;49.008;12.106;2022-07-03T14:24:51;0.30;;;0.30;;
45905;SDS011;31619;49.008;12.106;2022-07-03T14:27:17;0.75;;;0.75;;
45905;SDS011;31619;49.008;12.106;2022-07-03T14:30:02;0.90;;;0.40;;
45905;SDS011;31619;49.008;12.106;2022-07-03T14:32:47;0.43;;;0.43;;
45905;SDS011;31619;49.008;12.106;2022-07-03T14:35:12;0.22;;;0.22;;
45905;SDS011;31619;49.008;12.106;2022-07-03T14:37:38;0.35;;;0.35;;
45905;SDS011;31619;49.008;12.106;2022-07-03T14:40:04;0.20;;;0.20;;
45905;SDS011;31619;49.008;12.106;2022-07-03T14:42:30;0.55;;;0.40;;
45905;SDS011;31619;49.008;12.106;2022-07-03T14:44:55;0.60;;;0.50;;
45905;SDS011;31619;49.008;12.106;2022-07-03T14:47:21;0.38;;;0.38;;
45905;SDS011;31619;49.008;12.106;2022-07-03T14:49:47;1.75;;;0.28;;
45905;SDS011;31619;49.008;12.106;2022-07-03T14:52:12;0.40;;;0.40;;
45905;SDS011;31619;49.008;12.106;2022-07-03T14:54:38;0.43;;;0.40;;
45905;SDS011;31619;49.008;12.106;2022-07-03T14:57:07;0.47;;;0.47;;
45905;SDS011;31619;49.008;12.106;2022-07-03T15:05:40;1.08;;;0.30;;
45905;SDS011;31619;49.008;12.106;2022-07-03T15:10:43;0.95;;;0.40;;
45905;SDS011;31619;49.008;12.106;2022-07-03T15:13:09;0.65;;;0.45;;
45905;SDS011;31619;49.008;12.106;2022-07-03T15:15:35;0.85;;;0.45;;
45905;SDS011;31619;49.008;12.106;2022-07-03T15:18:04;0.20;;;0.20;;
45905;SDS011;31619;49.008;12.106;2022-07-03T15:20:31;1.58;;;0.52;;
45905;SDS011;31619;49.008;12.106;2022-07-03T15:23:01;0.35;;;0.35;;
45905;SDS011;31619;49.008;12.106;2022-07-03T15:25:29;0.47;;;0.47;;
45905;SDS011;31619;49.008;12.106;2022-07-03T15:27:56;0.30;;;0.30;;
45905;SDS011;31619;49.008;12.106;2022-07-03T15:30:22;0.75;;;0.40;;
45905;SDS011;31619;49.008;12.106;2022-07-03T15:32:50;1.35;;;0.43;;
45905;SDS011;31619;49.008;12.106;2022-07-03T15:35:17;0.43;;;0.43;;
45905;SDS011;31619;49.008;12.106;2022-07-03T15:40:33;0.60;;;0.60;;
45905;SDS011;31619;49.008;12.106;2022-07-03T15:49:10;0.45;;;0.45;;
45905;SDS011;31619;49.008;12.106;2022-07-03T15:54:35;0.40;;;0.40;;
45905;SDS011;31619;49.008;12.106;2022-07-03T15:57:25;0.82;;;0.50;;
45905;SDS011;31619;49.008;12.106;2022-07-03T16:00:06;0.60;;;0.60;;
45905;SDS011;31619;49.008;12.106;2022-07-03T16:05:38;1.42;;;0.50;;
45905;SDS011;31619;49.008;12.106;2022-07-03T16:08:05;0.90;;;0.45;;
45905;SDS011;31619;49.008;12.106;2022-07-03T16:10:37;1.35;;;0.40;;
45905;SDS011;31619;49.008;12.106;2022-07-03T16:13:04;0.30;;;0.30;;
45905;SDS011;31619;49.008;12.106;2022-07-03T16:15:33;1.13;;;0.85;;
45905;SDS011;31619;49.008;12.106;2022-07-03T16:18:00;0.52;;;0.52;;
45905;SDS011;31619;49.008;12.106;2022-07-03T16:20:28;0.40;;;0.40;;
45905;SDS011;31619;49.008;12.106;2022-07-03T16:22:55;0.82;;;0.63;;
45905;SDS011;31619;49.008;12.106;2022-07-03T16:25:22;0.40;;;0.40;;
45905;SDS011;31619;49.008;12.106;2022-07-03T16:27:49;0.63;;;0.63;;